Time;durP1;ratioP1;P1;durP2;ratioP2;P2;SDS_P1;SDS_P2;PMS_P1;PMS_P2;Temp;Humidity;BMP_temperature;BMP_pressure;BME280_temperature;BME280_humidity;BME280_pressure;Samples;Min_cycle;Max_cycle;Signal;HPM_P1;HPM_P2
2022/04/19 00:02:05;;;;;;;5.47;4.10;;;;;;;;;;5015825;28;20042;-65
2022/04/19 00:04:31;;;;;;;4.47;3.60;;;;;;;;;;5015976;28;20137;-65
2022/04/19 00:06:57;;;;;;;5.60;3.80;;;;;;;;;;5015615;28;20444;-65
2022/04/19 00:09:23;;;;;;;5.22;3.50;;;;;;;;;;5015786;28;20038;-65
2022/04/19 00:11:49;;;;;;;5.47;3.70;;;;;;;;;;5015680;28;20049;-65
2022/04/19 00:14:16;;;;;;;5.32;4.10;;;;;;;;;;5015276;28;20052;-64
2022/04/19 00:16:42;;;;;;;5.43;3.38;;;;;;;;;;5015870;28;20121;-65
2022/04/19 00:19:08;;;;;;;4.70;3.88;;;;;;;;;;5015439;28;20084;-65
2022/04/19 00:21:34;;;;;;;5.90;3.75;;;;;;;;;;5015527;28;20034;-65
2022/04/19 00:24:00;;;;;;;4.95;3.78;;;;;;;;;;5014014;28;20100;-65
2022/04/19 00:26:26;;;;;;;5.22;3.80;;;;;;;;;;5015296;28;20233;-65
2022/04/19 00:28:52;;;;;;;5.22;3.58;;;;;;;;;;5015363;28;20110;-65
2022/04/19 00:31:18;;;;;;;5.50;3.63;;;;;;;;;;5015138;28;20057;-65
2022/04/19 00:33:44;;;;;;;4.90;3.80;;;;;;;;;;5015254;28;20046;-65
2022/04/19 00:36:10;;;;;;;5.15;3.70;;;;;;;;;;5014953;28;20064;-65
2022/04/19 00:38:36;;;;;;;5.15;3.67;;;;;;;;;;5014757;28;20088;-65
2022/04/19 00:41:02;;;;;;;5.03;3.65;;;;;;;;;;5013664;28;20081;-65
2022/04/19 00:43:28;;;;;;;5.20;3.65;;;;;;;;;;5015225;28;20049;-65
2022/04/19 00:45:54;;;;;;;5.82;3.75;;;;;;;;;;5013239;28;20042;-65
2022/04/19 00:48:21;;;;;;;5.47;3.53;;;;;;;;;;5015046;28;20048;-65
2022/04/19 00:50:50;;;;;;;4.90;3.47;;;;;;;;;;5013317;28;20128;-66
2022/04/19 00:53:17;;;;;;;5.00;3.60;;;;;;;;;;5014214;28;20502;-65
2022/04/19 00:55:43;;;;;;;6.85;3.47;;;;;;;;;;5013536;28;20081;-65
2022/04/19 00:58:09;;;;;;;5.80;3.60;;;;;;;;;;5014849;28;20049;-65
2022/04/19 01:00:35;;;;;;;5.47;3.92;;;;;;;;;;5014857;28;20057;-65
2022/04/19 01:03:02;;;;;;;5.45;3.70;;;;;;;;;;5014995;28;20045;-65
2022/04/19 01:05:28;;;;;;;4.13;3.33;;;;;;;;;;5014167;28;20046;-65
2022/04/19 01:07:54;;;;;;;5.53;3.88;;;;;;;;;;5014709;28;20132;-65
2022/04/19 01:10:20;;;;;;;5.03;3.65;;;;;;;;;;5014247;28;20508;-64
2022/04/19 01:15:31;;;;;;;4.35;3.50;;;;;;;;;;5014553;28;20077;-65
2022/04/19 01:17:57;;;;;;;5.07;3.40;;;;;;;;;;5014399;28;20480;-65
2022/04/19 01:20:23;;;;;;;4.97;3.58;;;;;;;;;;5014913;28;20129;-64
2022/04/19 01:22:50;;;;;;;4.50;3.30;;;;;;;;;;5014001;28;20448;-64
2022/04/19 01:25:18;;;;;;;4.13;3.40;;;;;;;;;;5014119;28;20129;-65
2022/04/19 01:27:45;;;;;;;4.95;3.30;;;;;;;;;;5012754;28;20073;-65
2022/04/19 01:30:11;;;;;;;4.30;3.30;;;;;;;;;;5012941;28;20165;-65
2022/04/19 01:32:37;;;;;;;5.57;3.72;;;;;;;;;;5014045;28;20070;-65
2022/04/19 01:35:07;;;;;;;4.57;3.20;;;;;;;;;;5012371;28;20056;-64
2022/04/19 01:37:37;;;;;;;4.10;3.13;;;;;;;;;;5014169;28;20046;-65
2022/04/19 01:40:16;;;;;;;5.15;3.65;;;;;;;;;;5012824;28;20088;-65
2022/04/19 01:43:02;;;;;;;4.40;3.47;;;;;;;;;;5013252;28;20544;-64
2022/04/19 01:45:28;;;;;;;;;;;;;;;;;;5001353;28;20116;-64
2022/04/19 01:47:56;;;;;;;4.70;3.72;;;;;;;;;;5014039;28;20312;-64
2022/04/19 01:50:22;;;;;;;4.32;3.35;;;;;;;;;;5013609;28;20092;-64
2022/04/19 01:52:49;;;;;;;4.00;3.35;;;;;;;;;;5012452;28;20057;-64
2022/04/19 01:55:16;;;;;;;4.30;3.50;;;;;;;;;;5013504;28;20665;-64
2022/04/19 01:57:42;;;;;;;3.70;3.30;;;;;;;;;;5013429;28;20053;-64
2022/04/19 02:00:09;;;;;;;4.57;3.40;;;;;;;;;;5013640;28;20497;-64
2022/04/19 02:02:35;;;;;;;4.60;3.20;;;;;;;;;;5013639;28;20587;-64
2022/04/19 02:05:01;;;;;;;5.10;3.25;;;;;;;;;;5013592;28;20045;-64
2022/04/19 02:07:27;;;;;;;4.93;3.25;;;;;;;;;;5013588;28;20543;-64
2022/04/19 02:09:53;;;;;;;4.30;3.33;;;;;;;;;;5013091;28;20112;-64
2022/04/19 02:12:20;;;;;;;5.07;3.42;;;;;;;;;;5012009;28;20472;-64
2022/04/19 02:14:46;;;;;;;4.15;3.20;;;;;;;;;;5013519;28;20054;-64
2022/04/19 02:17:12;;;;;;;4.10;3.10;;;;;;;;;;5013437;28;20080;-64
2022/04/19 02:19:38;;;;;;;4.57;3.20;;;;;;;;;;5013645;28;20073;-64
2022/04/19 02:22:09;;;;;;;3.67;3.17;;;;;;;;;;5013741;28;20073;-64
2022/04/19 02:24:35;;;;;;;3.95;3.22;;;;;;;;;;5013088;28;20053;-64
2022/04/19 02:27:02;;;;;;;3.95;3.30;;;;;;;;;;5013276;28;20052;-65
2022/04/19 02:29:28;;;;;;;4.75;3.38;;;;;;;;;;5012907;28;20409;-65
2022/04/19 02:31:54;;;;;;;4.60;3.10;;;;;;;;;;5013273;28;20044;-65
2022/04/19 02:34:21;;;;;;;4.43;3.30;;;;;;;;;;5013208;28;20085;-64
2022/04/19 02:36:47;;;;;;;5.18;3.47;;;;;;;;;;5013186;28;20054;-65
2022/04/19 02:39:13;;;;;;;4.03;3.15;;;;;;;;;;5012521;28;20489;-65
2022/04/19 02:41:39;;;;;;;3.92;3.25;;;;;;;;;;5012880;28;20125;-64
2022/04/19 02:44:08;;;;;;;4.25;3.35;;;;;;;;;;5013082;28;20117;-64
2022/04/19 02:46:35;;;;;;;3.85;3.30;;;;;;;;;;5012873;28;20073;-64
2022/04/19 02:49:04;;;;;;;3.45;3.15;;;;;;;;;;5016955;28;20096;-64
2022/04/19 02:51:32;;;;;;;4.07;3.30;;;;;;;;;;5016915;28;20050;-65
2022/04/19 02:53:58;;;;;;;3.58;3.05;;;;;;;;;;5017057;28;20053;-64
2022/04/19 02:56:24;;;;;;;3.70;3.08;;;;;;;;;;5016902;28;20575;-64
2022/04/19 02:58:50;;;;;;;3.63;2.92;;;;;;;;;;5017051;28;20136;-65
2022/04/19 03:01:16;;;;;;;4.07;3.25;;;;;;;;;;5016515;28;20042;-65
2022/04/19 03:03:43;;;;;;;4.13;3.28;;;;;;;;;;5015803;28;20430;-64
2022/04/19 03:06:09;;;;;;;3.30;3.00;;;;;;;;;;5016174;28;20050;-65
2022/04/19 03:08:35;;;;;;;3.83;3.22;;;;;;;;;;5016964;28;20081;-64
2022/04/19 03:11:01;;;;;;;4.03;3.05;;;;;;;;;;5016889;28;20129;-64
2022/04/19 03:13:28;;;;;;;4.57;3.33;;;;;;;;;;5016641;28;20444;-65
2022/04/19 03:15:54;;;;;;;4.22;3.38;;;;;;;;;;5016359;28;20044;-65
2022/04/19 03:18:20;;;;;;;4.60;3.20;;;;;;;;;;5015632;28;20085;-65
2022/04/19 03:20:47;;;;;;;3.80;3.15;;;;;;;;;;5015371;28;20061;-65
2022/04/19 03:28:45;;;;;;;4.68;3.33;;;;;;;;;;5015470;28;20057;-64
2022/04/19 03:31:12;;;;;;;3.80;3.00;;;;;;;;;;5016433;28;20046;-64
2022/04/19 03:33:39;;;;;;;3.72;3.05;;;;;;;;;;5016583;28;20085;-65
2022/04/19 03:36:05;;;;;;;3.42;3.10;;;;;;;;;;5016622;28;20091;-64
2022/04/19 03:38:31;;;;;;;3.40;3.10;;;;;;;;;;5016162;28;20122;-65
2022/04/19 03:40:57;;;;;;;4.35;3.40;;;;;;;;;;5012674;28;20034;-64
2022/04/19 03:43:23;;;;;;;4.35;3.15;;;;;;;;;;4996598;28;20542;-64
2022/04/19 03:45:49;;;;;;;4.30;3.28;;;;;;;;;;5010482;28;20547;-65
2022/04/19 03:48:15;;;;;;;3.42;3.03;;;;;;;;;;5016274;28;20042;-64
2022/04/19 03:50:42;;;;;;;3.70;3.30;;;;;;;;;;5016324;28;20034;-64
2022/04/19 03:53:08;;;;;;;4.07;3.08;;;;;;;;;;5015777;28;20053;-64
2022/04/19 03:55:34;;;;;;;3.30;3.00;;;;;;;;;;5016019;28;20128;-64
2022/04/19 03:58:02;;;;;;;3.78;3.10;;;;;;;;;;5015449;28;20053;-64
2022/04/19 04:00:28;;;;;;;3.88;3.13;;;;;;;;;;5015674;28;20104;-64
2022/04/19 04:02:55;;;;;;;3.60;3.08;;;;;;;;;;5016092;28;20046;-64
2022/04/19 04:05:24;;;;;;;3.05;2.75;;;;;;;;;;5014482;28;20054;-64
2022/04/19 04:07:50;;;;;;;3.85;3.15;;;;;;;;;;5015607;28;20054;-64
2022/04/19 04:10:16;;;;;;;3.55;2.97;;;;;;;;;;5015686;28;20507;-64
2022/04/19 04:12:42;;;;;;;3.88;3.10;;;;;;;;;;5015257;28;20057;-64
2022/04/19 04:15:08;;;;;;;3.38;2.97;;;;;;;;;;5015354;28;20381;-65
2022/04/19 04:17:34;;;;;;;3.38;2.80;;;;;;;;;;5014548;28;20050;-64
2022/04/19 04:20:00;;;;;;;3.55;3.10;;;;;;;;;;5015706;28;20034;-64
2022/04/19 04:22:27;;;;;;;3.55;3.20;;;;;;;;;;5015022;28;20428;-64
2022/04/19 04:24:53;;;;;;;4.57;3.30;;;;;;;;;;5015622;28;20068;-64
2022/04/19 04:27:19;;;;;;;3.95;2.72;;;;;;;;;;5013732;28;20085;-64
2022/04/19 04:29:45;;;;;;;3.50;3.20;;;;;;;;;;5015120;28;20042;-65
2022/04/19 04:32:11;;;;;;;3.97;3.00;;;;;;;;;;5015211;28;20042;-64
2022/04/19 04:34:37;;;;;;;3.25;2.92;;;;;;;;;;5015128;28;20444;-64
2022/04/19 04:37:03;;;;;;;3.47;3.03;;;;;;;;;;5013638;28;20503;-65
2022/04/19 04:39:29;;;;;;;3.28;2.97;;;;;;;;;;5013806;28;20082;-64
2022/04/19 04:41:55;;;;;;;3.58;3.05;;;;;;;;;;5014926;28;20097;-64
2022/04/19 04:44:21;;;;;;;3.50;3.00;;;;;;;;;;5015117;28;20054;-64
2022/04/19 04:49:41;;;;;;;3.35;2.90;;;;;;;;;;5014890;28;20057;-65
2022/04/19 04:52:08;;;;;;;4.00;3.08;;;;;;;;;;5014798;28;20455;-65
2022/04/19 04:54:35;;;;;;;4.18;3.20;;;;;;;;;;5015139;28;20046;-65
2022/04/19 04:57:01;;;;;;;3.33;3.00;;;;;;;;;;5014729;28;20444;-65
2022/04/19 04:59:29;;;;;;;3.38;2.95;;;;;;;;;;5014560;28;20138;-64
2022/04/19 05:01:55;;;;;;;3.33;2.90;;;;;;;;;;5015120;28;20048;-64
2022/04/19 05:04:21;;;;;;;3.60;2.80;;;;;;;;;;5014532;28;20412;-64
2022/04/19 05:06:47;;;;;;;3.35;3.05;;;;;;;;;;5013260;28;20037;-64
2022/04/19 05:09:13;;;;;;;3.80;3.08;;;;;;;;;;5014322;28;20048;-64
2022/04/19 05:11:39;;;;;;;3.65;2.97;;;;;;;;;;5013823;28;20034;-64
2022/04/19 05:14:07;;;;;;;3.60;3.20;;;;;;;;;;5014495;28;20054;-64
2022/04/19 05:16:33;;;;;;;3.65;3.35;;;;;;;;;;5014753;28;20089;-64
2022/04/19 05:18:59;;;;;;;4.15;3.40;;;;;;;;;;5015262;28;20124;-65
2022/04/19 05:21:25;;;;;;;4.03;3.25;;;;;;;;;;5014411;28;20073;-64
2022/04/19 05:23:51;;;;;;;3.30;2.95;;;;;;;;;;5014267;28;20050;-64
2022/04/19 05:26:17;;;;;;;3.78;3.25;;;;;;;;;;5014461;28;20103;-64
2022/04/19 05:28:44;;;;;;;3.35;3.00;;;;;;;;;;5014187;28;20408;-64
2022/04/19 05:31:10;;;;;;;3.40;3.10;;;;;;;;;;5014285;28;20061;-64
2022/04/19 05:33:36;;;;;;;3.50;3.20;;;;;;;;;;5013934;28;20042;-64
2022/04/19 05:36:02;;;;;;;3.90;3.10;;;;;;;;;;5013830;28;20053;-64
2022/04/19 05:38:28;;;;;;;3.50;3.00;;;;;;;;;;5012305;28;20046;-64
2022/04/19 05:40:56;;;;;;;3.35;3.03;;;;;;;;;;5012644;28;20049;-64
2022/04/19 05:43:22;;;;;;;3.75;3.10;;;;;;;;;;5013836;28;20064;-64
2022/04/19 05:45:48;;;;;;;3.45;2.78;;;;;;;;;;5014097;28;20045;-64
2022/04/19 05:48:14;;;;;;;3.58;2.80;;;;;;;;;;5014180;28;20073;-64
2022/04/19 05:50:40;;;;;;;3.45;3.15;;;;;;;;;;5013597;28;20038;-66
2022/04/19 05:53:06;;;;;;;3.53;3.22;;;;;;;;;;5012322;28;20045;-64
2022/04/19 05:55:32;;;;;;;3.15;2.80;;;;;;;;;;5012519;28;20060;-65
2022/04/19 05:57:59;;;;;;;3.20;2.90;;;;;;;;;;5013590;28;20054;-65
2022/04/19 06:00:25;;;;;;;3.15;2.80;;;;;;;;;;5014035;28;20050;-64
2022/04/19 06:05:36;;;;;;;3.30;2.83;;;;;;;;;;5012814;28;20079;-65
2022/04/19 06:08:02;;;;;;;2.92;2.63;;;;;;;;;;5013193;28;20535;-65
2022/04/19 06:10:28;;;;;;;3.17;2.60;;;;;;;;;;5013837;28;20088;-65
2022/04/19 06:12:54;;;;;;;3.90;2.78;;;;;;;;;;5011527;28;20037;-65
2022/04/19 06:15:20;;;;;;;3.25;2.70;;;;;;;;;;5013990;28;20050;-65
2022/04/19 06:17:46;;;;;;;3.40;2.80;;;;;;;;;;5011760;28;20041;-65
2022/04/19 06:20:12;;;;;;;2.90;2.50;;;;;;;;;;5013215;28;20566;-65
2022/04/19 06:22:38;;;;;;;4.80;2.50;;;;;;;;;;5012399;28;20077;-65
2022/04/19 06:25:05;;;;;;;3.83;2.70;;;;;;;;;;5012552;28;20046;-65
2022/04/19 06:27:31;;;;;;;3.30;2.58;;;;;;;;;;5013455;28;20154;-64
2022/04/19 06:29:58;;;;;;;4.13;2.30;;;;;;;;;;5013253;28;20042;-64
2022/04/19 06:32:24;;;;;;;3.50;2.53;;;;;;;;;;5013292;28;20049;-64
2022/04/19 06:34:51;;;;;;;5.88;3.00;;;;;;;;;;5011380;28;20041;-65
2022/04/19 06:37:17;;;;;;;5.10;2.95;;;;;;;;;;5012343;28;20045;-65
2022/04/19 06:39:43;;;;;;;3.88;2.42;;;;;;;;;;5012786;28;20480;-65
2022/04/19 06:42:09;;;;;;;3.42;2.20;;;;;;;;;;5013237;28;20095;-64
2022/04/19 06:44:35;;;;;;;3.30;2.50;;;;;;;;;;4996247;28;20049;-64
2022/04/19 06:47:01;;;;;;;3.92;2.40;;;;;;;;;;4994490;28;20377;-64
2022/04/19 06:49:27;;;;;;;4.60;2.30;;;;;;;;;;5004242;28;20482;-64
2022/04/19 06:51:54;;;;;;;2.75;2.30;;;;;;;;;;5020858;28;20050;-64
2022/04/19 06:54:20;;;;;;;5.18;2.30;;;;;;;;;;5003826;28;20045;-64
2022/04/19 06:56:46;;;;;;;3.08;2.40;;;;;;;;;;5012917;28;20042;-65
2022/04/19 06:59:13;;;;;;;3.58;2.50;;;;;;;;;;5012840;28;20054;-65
2022/04/19 07:01:40;;;;;;;5.35;2.40;;;;;;;;;;5012917;28;20046;-65
2022/04/19 07:04:08;;;;;;;3.75;2.20;;;;;;;;;;5011482;28;20124;-65
2022/04/19 07:06:34;;;;;;;2.65;2.30;;;;;;;;;;5012271;28;20081;-66
2022/04/19 07:09:00;;;;;;;2.97;2.45;;;;;;;;;;5012772;28;20092;-65
2022/04/19 07:11:26;;;;;;;4.35;2.38;;;;;;;;;;5012743;28;20049;-65
2022/04/19 07:13:52;;;;;;;4.10;2.47;;;;;;;;;;5012140;28;20424;-65
2022/04/19 07:16:18;;;;;;;3.83;2.47;;;;;;;;;;5012433;28;20046;-64
2022/04/19 07:18:44;;;;;;;5.15;2.50;;;;;;;;;;5012244;28;20042;-65
2022/04/19 07:26:45;;;;;;;10.60;3.25;;;;;;;;;;5012658;28;20038;-65
2022/04/19 07:29:12;;;;;;;4.03;2.80;;;;;;;;;;5012808;28;20493;-65
2022/04/19 07:31:41;;;;;;;7.15;2.90;;;;;;;;;;5012858;28;20056;-64
2022/04/19 07:34:08;;;;;;;5.38;3.08;;;;;;;;;;5026762;28;20099;-65
2022/04/19 07:36:39;;;;;;;7.20;3.03;;;;;;;;;;5013816;28;20078;-65
2022/04/19 07:39:05;;;;;;;6.57;3.00;;;;;;;;;;5015801;28;20050;-65
2022/04/19 07:41:32;;;;;;;7.70;2.85;;;;;;;;;;5016183;28;20045;-65
2022/04/19 07:43:58;;;;;;;6.25;3.13;;;;;;;;;;4998379;28;20046;-64
2022/04/19 07:46:24;;;;;;;9.48;2.95;;;;;;;;;;5011024;28;20595;-64
2022/04/19 07:48:51;;;;;;;8.93;3.15;;;;;;;;;;5015672;28;20100;-63
2022/04/19 07:51:18;;;;;;;10.93;3.10;;;;;;;;;;5017970;28;20062;-62
2022/04/19 07:53:44;;;;;;;8.63;2.90;;;;;;;;;;5019867;28;20574;-63
2022/04/19 07:56:13;;;;;;;11.23;2.90;;;;;;;;;;5017107;28;20041;-62
2022/04/19 07:58:39;;;;;;;8.73;3.00;;;;;;;;;;5017560;28;20085;-64
2022/04/19 08:01:05;;;;;;;11.15;3.00;;;;;;;;;;5016237;28;20054;-64
2022/04/19 08:03:31;;;;;;;8.52;2.88;;;;;;;;;;5016842;28;20050;-64
2022/04/19 08:05:57;;;;;;;12.15;3.33;;;;;;;;;;5022244;28;20045;-63
2022/04/19 08:08:23;;;;;;;6.20;2.83;;;;;;;;;;5022792;28;20041;-63
2022/04/19 08:10:50;;;;;;;10.68;3.17;;;;;;;;;;5006997;28;20054;-63
2022/04/19 08:13:16;;;;;;;8.40;3.08;;;;;;;;;;5023262;28;20388;-62
2022/04/19 08:15:43;;;;;;;6.40;2.80;;;;;;;;;;5021645;28;20046;-62
2022/04/19 08:18:13;;;;;;;9.45;3.33;;;;;;;;;;5018673;28;20128;-62
2022/04/19 08:20:39;;;;;;;4.85;2.60;;;;;;;;;;5023273;28;20100;-63
2022/04/19 08:23:07;;;;;;;8.88;2.75;;;;;;;;;;5020691;28;20041;-63
2022/04/19 08:25:34;;;;;;;4.90;2.67;;;;;;;;;;5016796;28;20046;-63
2022/04/19 08:28:00;;;;;;;4.72;2.60;;;;;;;;;;5021122;28;20115;-63
2022/04/19 08:30:26;;;;;;;6.82;2.75;;;;;;;;;;5023810;28;20053;-63
2022/04/19 08:32:52;;;;;;;4.95;2.60;;;;;;;;;;5020767;28;20054;-63
2022/04/19 08:35:18;;;;;;;7.05;2.63;;;;;;;;;;5021113;28;20048;-63
2022/04/19 08:37:45;;;;;;;5.82;2.42;;;;;;;;;;5021779;28;20125;-63
2022/04/19 08:40:12;;;;;;;5.70;2.70;;;;;;;;;;5020852;28;20058;-63
2022/04/19 08:42:40;;;;;;;3.70;2.38;;;;;;;;;;5021593;28;20068;-64
2022/04/19 08:45:07;;;;;;;4.93;2.47;;;;;;;;;;5018996;28;20041;-63
2022/04/19 08:47:37;;;;;;;6.55;2.60;;;;;;;;;;5019237;28;20540;-63
2022/04/19 08:50:04;;;;;;;5.38;2.40;;;;;;;;;;5002701;28;20042;-63
2022/04/19 08:52:31;;;;;;;4.63;2.50;;;;;;;;;;5022021;28;20113;-63
2022/04/19 08:57:42;;;;;;;4.82;2.30;;;;;;;;;;5021063;28;20054;-63
2022/04/19 09:00:08;;;;;;;5.45;2.30;;;;;;;;;;5024430;28;20052;-64
2022/04/19 09:02:37;;;;;;;6.50;2.53;;;;;;;;;;5019638;28;20073;-66
2022/04/19 09:05:19;;;;;;;3.50;2.47;;;;;;;;;;4998301;28;20117;-64
2022/04/19 09:07:48;;;;;;;5.30;2.50;;;;;;;;;;5018022;28;20065;-63
2022/04/19 09:10:15;;;;;;;7.18;2.72;;;;;;;;;;5024465;28;20042;-64
2022/04/19 09:13:07;;;;;;;3.42;2.40;;;;;;;;;;5005884;28;20046;-65
2022/04/19 09:15:33;;;;;;;2.97;2.30;;;;;;;;;;5022468;28;20417;-65
2022/04/19 09:18:00;;;;;;;4.63;2.60;;;;;;;;;;5014271;28;20481;-67
2022/04/19 09:20:26;;;;;;;4.97;2.38;;;;;;;;;;5013944;28;20080;-66
2022/04/19 09:23:08;;;;;;;6.60;2.30;;;;;;;;;;5014411;28;20493;-66
2022/04/19 09:25:35;;;;;;;5.63;2.30;;;;;;;;;;5014002;28;20053;-66
2022/04/19 09:28:02;;;;;;;5.75;2.40;;;;;;;;;;5014524;28;20042;-66
2022/04/19 09:30:29;;;;;;;6.93;2.45;;;;;;;;;;5014153;28;20046;-66
2022/04/19 09:33:11;;;;;;;7.30;2.38;;;;;;;;;;4996502;28;20045;-66
2022/04/19 09:35:56;;;;;;;3.85;2.15;;;;;;;;;;5014532;28;20496;-66
2022/04/19 09:38:38;;;;;;;5.38;2.17;;;;;;;;;;5014261;28;20049;-66
2022/04/19 09:41:08;;;;;;;4.82;2.30;;;;;;;;;;4996522;28;20104;-66
2022/04/19 09:43:34;;;;;;;5.65;2.13;;;;;;;;;;5014349;28;20088;-66
2022/04/19 09:46:03;;;;;;;5.20;2.25;;;;;;;;;;5013843;28;20493;-66
2022/04/19 09:48:33;;;;;;;5.80;2.90;;;;;;;;;;4996233;28;20046;-66
2022/04/19 09:51:09;;;;;;;6.75;3.63;;;;;;;;;;4996168;28;20147;-66
2022/04/19 09:53:40;;;;;;;6.57;4.90;;;;;;;;;;4995787;28;20100;-66
2022/04/19 09:56:16;;;;;;;7.20;5.60;;;;;;;;;;5013410;28;20049;-66
2022/04/19 09:58:44;;;;;;;8.85;6.03;;;;;;;;;;5013776;28;20045;-66
2022/04/19 10:09:25;;;;;;;32.08;15.57;;;;;;;;;;5013877;28;20049;-66
2022/04/19 10:11:51;;;;;;;27.83;17.20;;;;;;;;;;5013312;28;20046;-65
2022/04/19 10:14:18;;;;;;;30.35;16.73;;;;;;;;;;5013569;28;20034;-65
2022/04/19 10:16:45;;;;;;;23.63;14.88;;;;;;;;;;5013662;28;20060;-67
2022/04/19 10:19:13;;;;;;;21.92;13.30;;;;;;;;;;5014055;28;20111;-66
2022/04/19 10:21:42;;;;;;;17.38;11.48;;;;;;;;;;5013385;28;20068;-65
2022/04/19 10:24:10;;;;;;;16.83;10.43;;;;;;;;;;5013748;28;20042;-66
2022/04/19 10:26:47;;;;;;;16.52;9.70;;;;;;;;;;4996035;28;20483;-67
2022/04/19 10:29:28;;;;;;;16.17;9.32;;;;;;;;;;5013015;28;20088;-64
2022/04/19 10:31:54;;;;;;;14.07;9.45;;;;;;;;;;5013117;28;20497;-66
2022/04/19 10:34:25;;;;;;;12.65;8.20;;;;;;;;;;5012299;28;20041;-66
2022/04/19 10:36:54;;;;;;;14.45;8.13;;;;;;;;;;5009535;28;20042;-66
2022/04/19 10:39:21;;;;;;;13.93;7.57;;;;;;;;;;5013308;28;20050;-66
2022/04/19 10:42:07;;;;;;;14.93;7.45;;;;;;;;;;4995594;28;20049;-66
2022/04/19 10:44:36;;;;;;;;;;;;;;;;;;5011280;28;20056;-67
2022/04/19 10:47:16;;;;;;;11.95;7.07;;;;;;;;;;5013072;28;19988;-66
2022/04/19 10:49:51;;;;;;;10.68;6.90;;;;;;;;;;5013116;28;20057;-66
2022/04/19 10:52:36;;;;;;;11.93;6.68;;;;;;;;;;5012915;28;20046;-66
2022/04/19 10:55:18;;;;;;;10.40;6.50;;;;;;;;;;5009504;28;20093;-67
2022/04/19 11:00:42;;;;;;;11.10;6.30;;;;;;;;;;5003443;28;20049;-66
2022/04/19 11:03:16;;;;;;;9.60;5.55;;;;;;;;;;4993559;28;20046;-66
2022/04/19 11:05:52;;;;;;;10.23;5.93;;;;;;;;;;5011390;28;20481;-66
2022/04/19 11:08:26;;;;;;;10.25;5.82;;;;;;;;;;5013747;28;20623;-66
2022/04/19 11:10:52;;;;;;;8.20;5.17;;;;;;;;;;5016800;28;20432;-66
2022/04/19 11:13:22;;;;;;;8.20;4.90;;;;;;;;;;5017054;28;20128;-67
2022/04/19 11:16:00;;;;;;;8.30;5.13;;;;;;;;;;5014160;28;20139;-67
2022/04/19 11:18:27;;;;;;;10.30;4.90;;;;;;;;;;4998832;28;20039;-66
2022/04/19 11:20:54;;;;;;;11.32;4.70;;;;;;;;;;5006579;28;20167;-66
2022/04/19 11:23:22;;;;;;;9.05;4.53;;;;;;;;;;5016249;28;20042;-66
2022/04/19 11:25:49;;;;;;;12.25;4.95;;;;;;;;;;4998556;28;20108;-66
2022/04/19 11:28:19;;;;;;;10.13;4.70;;;;;;;;;;5013588;28;20042;-66
2022/04/19 11:31:05;;;;;;;8.07;4.45;;;;;;;;;;5016575;28;20046;-66
2022/04/19 11:33:33;;;;;;;6.88;4.22;;;;;;;;;;5015479;28;20121;-66
2022/04/19 11:36:00;;;;;;;6.68;4.22;;;;;;;;;;5014654;28;20119;-66
2022/04/19 11:38:26;;;;;;;8.75;4.93;;;;;;;;;;5015815;28;20120;-66
2022/04/19 11:49:07;;;;;;;6.50;3.78;;;;;;;;;;5015130;28;20129;-66
2022/04/19 11:51:37;;;;;;;7.47;3.83;;;;;;;;;;5015131;28;20053;-66
2022/04/19 11:54:04;;;;;;;6.28;3.50;;;;;;;;;;5000294;28;20120;-66
2022/04/19 11:56:33;;;;;;;6.38;3.65;;;;;;;;;;5006752;28;20042;-66
2022/04/19 11:59:00;;;;;;;7.32;3.72;;;;;;;;;;5015596;28;20061;-66
2022/04/19 12:01:26;;;;;;;6.47;3.60;;;;;;;;;;5016160;28;20049;-66
2022/04/19 12:03:53;;;;;;;5.07;3.35;;;;;;;;;;5015373;28;20069;-66
2022/04/19 12:06:20;;;;;;;7.05;3.50;;;;;;;;;;5013717;28;20441;-67
2022/04/19 12:08:50;;;;;;;5.47;3.35;;;;;;;;;;5014825;28;20115;-66
2022/04/19 12:11:26;;;;;;;8.85;3.33;;;;;;;;;;4996035;28;20050;-67
2022/04/19 12:13:53;;;;;;;10.45;3.40;;;;;;;;;;5015431;28;20053;-67
2022/04/19 12:16:31;;;;;;;6.05;3.40;;;;;;;;;;5014697;28;20081;-66
2022/04/19 12:18:58;;;;;;;6.55;3.08;;;;;;;;;;5014887;28;20073;-66
2022/04/19 12:21:38;;;;;;;4.38;3.15;;;;;;;;;;5015309;28;20072;-67
2022/04/19 12:24:07;;;;;;;6.93;3.38;;;;;;;;;;5015327;28;20037;-66
2022/04/19 12:26:34;;;;;;;4.38;3.05;;;;;;;;;;5015109;28;20038;-67
2022/04/19 12:29:07;;;;;;;5.82;2.95;;;;;;;;;;5015423;28;20481;-66
2022/04/19 12:31:34;;;;;;;5.13;2.90;;;;;;;;;;5011565;28;20046;-66
2022/04/19 12:34:01;;;;;;;6.00;3.13;;;;;;;;;;5015173;28;20053;-67
2022/04/19 12:36:28;;;;;;;4.28;2.88;;;;;;;;;;5014881;28;20041;-66
2022/04/19 12:39:01;;;;;;;5.93;2.80;;;;;;;;;;5015261;28;20054;-66
2022/04/19 12:41:36;;;;;;;5.07;2.80;;;;;;;;;;5013995;28;20067;-67
2022/04/19 12:44:02;;;;;;;5.88;2.85;;;;;;;;;;4999231;28;20147;-67
2022/04/19 12:46:30;;;;;;;3.78;2.45;;;;;;;;;;5015150;28;20505;-67
2022/04/19 12:48:57;;;;;;;5.20;3.00;;;;;;;;;;5015127;28;20520;-66
2022/04/19 12:51:26;;;;;;;5.38;2.83;;;;;;;;;;5014962;28;20053;-67
2022/04/19 12:54:07;;;;;;;4.43;2.75;;;;;;;;;;5014873;28;20136;-66
2022/04/19 12:56:34;;;;;;;4.78;2.70;;;;;;;;;;5014938;28;20512;-67
2022/04/19 12:59:00;;;;;;;4.18;2.47;;;;;;;;;;5014630;28;20057;-67
2022/04/19 13:01:27;;;;;;;3.90;2.45;;;;;;;;;;4999278;28;20081;-67
2022/04/19 13:03:53;;;;;;;5.68;2.70;;;;;;;;;;5014414;28;20133;-67
2022/04/19 13:14:34;;;;;;;5.60;3.00;;;;;;;;;;5000347;28;20049;-66
2022/04/19 13:17:00;;;;;;;4.93;2.60;;;;;;;;;;5014196;28;20128;-66
2022/04/19 13:19:26;;;;;;;4.65;2.60;;;;;;;;;;5013535;28;20042;-65
2022/04/19 13:21:52;;;;;;;3.05;2.38;;;;;;;;;;5013779;28;20049;-65
2022/04/19 13:24:18;;;;;;;4.10;2.50;;;;;;;;;;5013144;28;20050;-67
2022/04/19 13:26:44;;;;;;;5.40;2.58;;;;;;;;;;5012485;28;20034;-67
2022/04/19 13:29:11;;;;;;;5.78;2.60;;;;;;;;;;4996221;28;20049;-67
2022/04/19 13:31:37;;;;;;;5.35;2.70;;;;;;;;;;5013643;28;20046;-67
2022/04/19 13:34:03;;;;;;;6.85;3.05;;;;;;;;;;5011757;28;20516;-66
2022/04/19 13:36:29;;;;;;;4.65;2.47;;;;;;;;;;5011908;28;20038;-67
2022/04/19 13:38:56;;;;;;;6.43;3.05;;;;;;;;;;4995513;28;20501;-66
2022/04/19 13:41:22;;;;;;;6.50;2.78;;;;;;;;;;5013798;28;20507;-67
2022/04/19 13:43:48;;;;;;;5.32;2.72;;;;;;;;;;5013619;28;20042;-67
2022/04/19 13:46:14;;;;;;;4.65;3.05;;;;;;;;;;5012831;28;20555;-67
2022/04/19 13:48:40;;;;;;;8.23;2.67;;;;;;;;;;5013457;28;20040;-68
2022/04/19 13:51:06;;;;;;;6.90;2.60;;;;;;;;;;5013545;28;20413;-68
2022/04/19 13:53:33;;;;;;;6.43;2.60;;;;;;;;;;5012026;28;20045;-67
2022/04/19 13:55:59;;;;;;;6.45;2.45;;;;;;;;;;5010484;28;20046;-68
2022/04/19 13:58:25;;;;;;;7.68;2.50;;;;;;;;;;5012447;28;20080;-67
2022/04/19 14:00:51;;;;;;;6.88;2.50;;;;;;;;;;5013142;28;20049;-67
2022/04/19 14:03:17;;;;;;;7.80;2.70;;;;;;;;;;5013235;28;20103;-68
2022/04/19 14:05:43;;;;;;;7.47;2.35;;;;;;;;;;5012249;28;20144;-68
2022/04/19 14:08:09;;;;;;;4.10;2.30;;;;;;;;;;5013096;28;20248;-67
2022/04/19 14:10:36;;;;;;;3.92;2.25;;;;;;;;;;5011748;28;20153;-68
2022/04/19 14:13:02;;;;;;;3.75;2.35;;;;;;;;;;5012808;28;20257;-68
2022/04/19 14:15:29;;;;;;;4.20;2.25;;;;;;;;;;5012942;28;20060;-67
2022/04/19 14:17:55;;;;;;;3.75;2.30;;;;;;;;;;5012889;28;20046;-67
2022/04/19 14:20:21;;;;;;;3.70;2.50;;;;;;;;;;5012577;28;20049;-67
2022/04/19 14:22:47;;;;;;;6.00;2.30;;;;;;;;;;5012355;28;20042;-67
2022/04/19 14:25:13;;;;;;;8.90;2.80;;;;;;;;;;5012756;28;20456;-68
2022/04/19 14:27:39;;;;;;;3.33;2.35;;;;;;;;;;5013307;28;20077;-67
2022/04/19 14:35:35;;;;;;;4.25;2.35;;;;;;;;;;5012751;28;20128;-67
2022/04/19 14:38:01;;;;;;;3.20;2.17;;;;;;;;;;4992031;28;20181;-68
2022/04/19 14:40:27;;;;;;;3.08;2.35;;;;;;;;;;5012516;28;20050;-67
2022/04/19 14:42:53;;;;;;;4.10;2.17;;;;;;;;;;5012467;28;20071;-67
2022/04/19 14:45:19;;;;;;;5.38;2.50;;;;;;;;;;5012061;28;20050;-67
2022/04/19 14:47:45;;;;;;;3.05;2.20;;;;;;;;;;5013096;28;20507;-67
2022/04/19 14:50:11;;;;;;;3.38;2.08;;;;;;;;;;5012791;28;20068;-67
2022/04/19 14:52:38;;;;;;;3.80;2.15;;;;;;;;;;5006709;28;20042;-67
2022/04/19 14:55:04;;;;;;;3.53;2.40;;;;;;;;;;4994366;28;20096;-68
2022/04/19 14:57:30;;;;;;;4.38;2.10;;;;;;;;;;5007797;28;20034;-67
2022/04/19 14:59:56;;;;;;;4.80;2.47;;;;;;;;;;5001615;28;20049;-67
2022/04/19 15:02:22;;;;;;;3.75;2.30;;;;;;;;;;5012367;28;20050;-67
2022/04/19 15:04:48;;;;;;;3.35;2.50;;;;;;;;;;5012873;28;20057;-68
2022/04/19 15:07:14;;;;;;;4.10;2.15;;;;;;;;;;5011992;28;20389;-67
2022/04/19 15:09:40;;;;;;;3.72;2.38;;;;;;;;;;5012667;28;20046;-67
2022/04/19 15:12:08;;;;;;;3.05;2.10;;;;;;;;;;4994470;28;20439;-67
2022/04/19 15:14:35;;;;;;;2.58;2.13;;;;;;;;;;5011960;28;20077;-67
2022/04/19 15:17:02;;;;;;;4.10;2.22;;;;;;;;;;5012037;28;20469;-68
2022/04/19 15:19:28;;;;;;;4.38;2.20;;;;;;;;;;5012836;28;20041;-67
2022/04/19 15:21:54;;;;;;;2.75;2.00;;;;;;;;;;5011549;28;20062;-67
2022/04/19 15:24:22;;;;;;;3.08;2.17;;;;;;;;;;5008821;28;20045;-69
2022/04/19 15:26:48;;;;;;;3.10;2.00;;;;;;;;;;4993465;28;20709;-68
2022/04/19 15:29:14;;;;;;;2.97;2.10;;;;;;;;;;4995922;28;20485;-67
2022/04/19 15:31:40;;;;;;;3.20;2.20;;;;;;;;;;5012699;28;20136;-67
2022/04/19 15:34:07;;;;;;;3.15;2.00;;;;;;;;;;5012562;28;20053;-67
2022/04/19 15:36:33;;;;;;;2.80;2.00;;;;;;;;;;4993465;28;20066;-68
2022/04/19 15:38:59;;;;;;;2.80;2.00;;;;;;;;;;5001432;28;20493;-68
2022/04/19 15:41:26;;;;;;;3.03;2.03;;;;;;;;;;5011912;28;20069;-67